Millboro Springs, Virginia
Current Conditions -  °F | °C
As of 2:15 AM on Thursday 23 Oct 2014 (Local Time) from KHSP Reporting Station
Overcast Overcast  
Wind Chill: 28°   Ceiling: 600
Heat Index: 38°   Visibility: 10mi
Dew Point: 37°   Wind: 21mph
Humidity: 94%   Direction: 290°WNW
Pressure: 30.02"   Gusts: 26mph
Location:  38.028°N, 79.6492°W
Report Text: KHSP 230615Z AUTO 29018G23KT 10SM OVC006 04/03 A3002 RMK AO2 T00360027
Loading
Personal Weather Stations






























Interactive Weather Map
Tropical Storm Tracking
New forecast layout! Learn more

10-Day Weather Forecast

Advertisements
Track Severe Weather on mobile